Latest Weather Observations for Parafield

IDS60801

Issued at 8:31 am CDT Tuesday 17 October 2017 (issued every 30 minutes, with the page automatically refreshed every 10 minutes)

About weather observations | Map of weather stations | Latest weather observations for SA | Other Formats
Station Details ID: 023013 Name: PARAFIELD AIRPORT Lat: -34.80 Lon: 138.63 Height: 9.5 m
Data from the previous 72 hours. | See also: Recent months at Parafield
Date/Time
CDT
Temp
°C
App
Temp
°C
Dew
Point
°C
Rel
Hum
%
Delta-T
°C
Wind Press
QNH
hPa
Press
MSL
hPa
Rain since
9am
mm
Dir  Spd
km/h
Gust
km/h
Spd
kts
Gust
kts
17/08:30am 26.9 21.9 6.3 27 10.7 NNE 22 30 12 16 1016.9 1016.9 0.0
17/08:00am 26.0 20.5 6.1 28 10.3 NE 24 35 13 19 1016.7 1016.7 0.0
17/07:30am 24.6 19.9 5.9 30 9.6 NE 20 26 11 14 1016.5 1016.5 0.0
17/07:00am 23.4 18.6 5.8 32 8.9 NE 20 26 11 14 1016.2 1016.2 0.0
17/06:30am 22.7 17.9 5.6 33 8.6 NE 20 28 11 15 1015.8 1015.8 0.0
17/06:00am 22.4 18.2 5.8 34 8.3 NE 17 22 9 12 1015.5 1015.5 0.0
17/05:30am 23.2 18.7 6.1 33 8.7 NE 19 26 10 14 1015.3 1015.3 0.0
17/05:00am 23.8 19.3 6.1 32 9.0 NE 19 26 10 14 1015.3 1015.3 0.0
17/04:30am 24.5 19.4 5.8 30 9.5 NE 22 30 12 16 1015.2 1015.2 0.0
17/04:00am 24.4 19.6 5.7 30 9.5 NNE 20 30 11 16 1015.2 1015.2 0.0
17/03:30am 24.6 20.1 5.9 30 9.6 NNE 19 24 10 13 1015.3 1015.3 0.0
17/03:00am 24.9 20.3 5.7 29 9.8 NE 19 24 10 13 1015.4 1015.4 0.0
17/02:30am 25.2 20.5 5.9 29 9.9 NE 20 28 11 15 1015.5 1015.5 0.0
17/02:00am 25.9 21.1 5.5 27 10.4 NE 20 30 11 16 1015.7 1015.7 0.0
17/01:30am 26.3 21.2 5.8 27 10.6 NE 22 28 12 15 1016.0 1016.0 0.0
17/01:00am 25.9 20.4 6.0 28 10.3 NE 24 32 13 17 1016.1 1016.1 0.0
17/12:30am 25.6 20.6 6.3 29 10.0 ENE 22 28 12 15 1016.3 1016.3 0.0
17/12:00am 25.1 20.2 6.8 31 9.5 ENE 22 28 12 15 1016.4 1016.4 0.0
 
Date/Time
CDT
Temp
°C
App
Temp
°C
Dew
Point
°C
Rel
Hum
%
Delta-T
°C
Wind Press
QNH
hPa
Press
MSL
hPa
Rain since
9am
mm
Dir  Spd
km/h
Gust
km/h
Spd
kts
Gust
kts
16/11:30pm 24.7 20.4 6.9 32 9.3 E 19 24 10 13 1016.8 1016.8 0.0
16/11:00pm 24.5 20.5 6.7 32 9.2 E 17 20 9 11 1016.9 1016.9 0.0
16/10:30pm 24.1 20.2 7.3 34 8.8 ESE 17 20 9 11 1017.0 1017.0 0.0
16/10:00pm 22.0 20.0 8.5 42 7.1 E 9 9 5 5 1016.8 1016.8 0.0
16/09:30pm 22.2 20.0 8.0 40 7.4 E 9 13 5 7 1016.8 1016.8 0.0
16/09:00pm 23.3 21.0 7.4 36 8.3 E 9 11 5 6 1016.5 1016.5 0.0
16/08:30pm 25.4 21.4 6.6 30 9.8 E 17 20 9 11 1016.2 1016.2 0.0
16/08:00pm 26.2 22.1 6.3 28 10.4 E 17 19 9 10 1015.8 1015.8 0.0
16/07:30pm 27.8 23.7 6.0 25 11.4 E 17 20 9 11 1015.7 1015.7 0.0
16/07:00pm 29.7 25.1 5.7 22 12.6 ENE 19 28 10 15 1015.6 1015.6 0.0
16/06:30pm 30.9 25.8 6.0 21 13.2 ENE 22 30 12 16 1015.6 1015.6 0.0
16/06:00pm 31.5 26.8 5.1 19 13.9 NE 19 28 10 15 1015.5 1015.5 0.0
16/05:30pm 32.0 26.6 6.2 20 13.8 ENE 24 35 13 19 1015.4 1015.4 0.0
16/05:00pm 32.6 27.5 6.0 19 14.3 NE 22 33 12 18 1015.4 1015.4 0.0
16/04:30pm 32.6 27.7 6.7 20 14.0 NE 22 32 12 17 1015.5 1015.5 0.0
16/04:00pm 32.8 27.0 6.2 19 14.3 ENE 26 35 14 19 1015.6 1015.6 0.0
16/03:30pm 31.9 27.6 6.9 21 13.6 ENE 19 30 10 16 1016.0 1016.0 0.0
16/03:00pm 32.1 28.2 7.0 21 13.6 NE 17 26 9 14 1016.5 1016.5 0.0
16/02:30pm 32.0 27.5 7.0 21 13.6 ENE 20 30 11 16 1017.0 1017.0 0.0
16/02:00pm 32.7 29.2 8.9 23 13.4 NNE 17 30 9 16 1017.2 1017.2 0.0
16/01:30pm 31.1 26.8 6.9 22 13.1 ENE 19 33 10 18 1017.4 1017.4 0.0
16/01:00pm 32.0 27.8 7.6 22 13.4 E 19 44 10 24 1017.6 1017.6 0.0
16/12:30pm 31.1 28.6 8.2 24 12.6 E 11 17 6 9 1018.1 1018.1 0.0
16/12:00pm 30.6 27.2 7.7 24 12.5 NE 15 24 8 13 1018.6 1018.6 0.0
16/11:30am 30.3 26.1 8.1 25 12.2 N 20 30 11 16 1019.0 1019.0 0.0
16/11:00am 29.7 25.6 8.7 27 11.6 NNE 20 28 11 15 1019.5 1019.5 0.0
16/10:30am 28.9 25.0 8.6 28 11.1 N 19 28 10 15 1019.8 1019.8 0.0
16/10:00am 28.2 24.6 8.5 29 10.8 NNE 17 26 9 14 1020.0 1020.0 0.0
16/09:30am 25.0 24.7 11.6 43 7.6 N 4 7 2 4 1020.1 1020.1 0.0
16/09:00am 22.5 23.3 12.4 52 5.7 CALM 0 0 0 0 1020.3 1020.3 0.0
16/08:30am 20.1 19.5 11.8 59 4.6 W 6 9 3 5 1020.4 1020.4 0.0
16/08:00am 18.0 17.7 14.5 80 2.0 W 9 11 5 6 1020.3 1020.3 0.0
16/07:30am 15.3 15.7 15.3 100 0.0 WSW 7 11 4 6 1019.9 1019.9 0.0
16/07:00am 12.4 11.8 12.4 100 0.0 WNW 7 11 4 6 1019.7 1019.7 0.0
16/06:30am 11.8 11.2 11.6 99 0.1 SW 6 7 3 4 1019.4 1019.4 0.0
16/06:00am 11.1 10.2 10.8 98 0.2 W 6 13 3 7 1019.3 1019.3 0.0
16/05:30am 11.2 11.4 10.7 97 0.3 CALM 0 0 0 0 1019.1 1019.1 0.0
16/05:00am 11.8 12.1 10.9 94 0.5 CALM 0 0 0 0 1019.0 1019.0 0.0
16/04:30am 13.3 13.5 12.0 92 0.7 W 2 7 1 4 1019.0 1019.0 0.0
16/04:00am 13.6 12.5 10.8 83 1.5 WNW 7 11 4 6 1019.2 1019.2 0.0
16/03:30am 14.6 13.6 11.0 79 1.9 W 7 11 4 6 1019.4 1019.4 0.0
16/03:00am 16.1 13.7 8.8 62 3.7 WNW 11 17 6 9 1019.5 1019.5 0.0
16/02:30am 19.0 14.4 6.5 44 6.2 E 20 32 11 17 1019.3 1019.3 0.0
16/02:00am 19.2 13.0 7.9 48 5.8 ESE 30 39 16 21 1019.2 1019.2 0.0
16/01:30am 19.5 13.4 8.2 48 5.8 ESE 30 41 16 22 1019.5 1019.5 0.0
16/01:00am 18.9 14.0 8.6 51 5.3 ESE 24 32 13 17 1019.9 1019.9 0.0
16/12:30am 17.7 16.2 8.3 54 4.8 NE 6 9 3 5 1020.2 1020.2 0.0
16/12:00am 17.6 16.0 8.7 56 4.6 SSE 7 19 4 10 1020.4 1020.4 0.0
 
Date/Time
CDT
Temp
°C
App
Temp
°C
Dew
Point
°C
Rel
Hum
%
Delta-T
°C
Wind Press
QNH
hPa
Press
MSL
hPa
Rain since
9am
mm
Dir  Spd
km/h
Gust
km/h
Spd
kts
Gust
kts
15/11:30pm 17.3 16.3 9.0 58 4.3 NNE 4 9 2 5 1020.4 1020.4 0.0
15/11:00pm 17.0 15.6 8.9 59 4.2 W 6 9 3 5 1020.5 1020.5 0.0
15/10:30pm 17.1 15.3 9.3 60 4.0 ESE 9 15 5 8 1020.4 1020.4 0.0
15/10:00pm 17.4 15.0 8.8 57 4.4 ESE 11 20 6 11 1020.5 1020.5 0.0
15/09:30pm 17.6 16.1 9.0 57 4.4 SE 7 20 4 11 1020.5 1020.5 0.0
15/09:00pm 17.8 14.3 8.9 56 4.6 ESE 17 24 9 13 1020.4 1020.4 0.0
15/08:30pm 18.1 14.6 8.7 54 4.9 ESE 17 28 9 15 1020.1 1020.1 0.0
15/08:00pm 18.7 13.4 8.4 51 5.3 ESE 26 35 14 19 1019.9 1019.9 0.0
15/07:30pm 19.6 15.0 8.3 48 5.8 SE 22 30 12 16 1019.7 1019.7 0.0
15/07:00pm 21.4 16.1 8.3 43 6.9 ESE 26 33 14 18 1019.5 1019.5 0.0
15/06:30pm 22.6 17.7 8.3 40 7.5 ESE 24 33 13 18 1019.3 1019.3 0.0
15/06:00pm 23.5 18.4 9.1 40 7.7 SE 26 33 14 18 1019.2 1019.2 0.0
15/05:30pm 25.5 20.5 4.6 26 10.5 E 20 28 11 15 1019.2 1019.2 0.0
15/05:00pm 25.6 21.7 5.2 27 10.4 NE 15 26 8 14 1019.4 1019.4 0.0
15/04:30pm 24.4 21.9 11.0 43 7.5 SW 15 20 8 11 1019.4 1019.4 0.0
15/04:00pm 24.5 20.8 10.0 40 8.0 SW 20 26 11 14 1019.5 1019.5 0.0
15/03:30pm 24.2 20.7 10.8 43 7.4 WSW 20 28 11 15 1019.8 1019.8 0.0
15/03:00pm 24.6 20.9 10.1 40 8.0 WSW 20 30 11 16 1020.1 1020.1 0.0
15/02:30pm 24.8 21.9 8.3 35 8.8 WNW 13 30 7 16 1020.6 1020.6 0.0
15/02:00pm 24.7 22.6 8.2 35 8.8 SE 9 19 5 10 1020.9 1020.9 0.0
15/01:30pm 24.6 21.7 8.1 35 8.8 E 13 20 7 11 1021.3 1021.3 0.0
15/01:00pm 23.9 21.2 7.5 35 8.6 ENE 11 20 6 11 1021.4 1021.4 0.0
15/12:30pm 23.0 20.2 7.1 36 8.2 E 11 20 6 11 1021.8 1021.7 0.0
15/12:00pm 22.8 20.6 7.8 38 7.8 NE 9 13 5 7 1022.2 1022.1 0.0
15/11:30am 22.3 20.0 7.3 38 7.7 NE 9 15 5 8 1022.5 1022.4 0.0
15/11:00am 22.2 19.3 8.0 40 7.4 ESE 13 20 7 11 1022.9 1022.8 0.0
15/10:30am 20.9 18.4 8.2 44 6.6 E 11 20 6 11 1023.2 1023.1 0.0
15/10:00am 20.2 17.6 9.2 49 5.8 E 13 19 7 10 1023.4 1023.3 0.0
15/09:30am 19.5 15.6 8.8 50 5.6 E 19 26 10 14 1023.6 1023.5 0.0
15/09:00am 18.8 15.7 9.0 53 5.1 ENE 15 20 8 11 1023.4 1023.3 0.0
15/08:30am 17.4 15.0 8.8 57 4.4 E 11 17 6 9 1023.4 1023.3 0.0
15/08:00am 15.6 13.8 9.3 66 3.2 S 9 11 5 6 1023.3 1023.2 0.0
15/07:30am 13.9 11.7 9.5 75 2.2 S 11 13 6 7 1023.0 1022.9 0.0
15/07:00am 11.9 9.6 9.1 83 1.4 S 11 13 6 7 1022.8 1022.7 0.0
15/06:30am 11.4 9.0 8.6 83 1.4 SSW 11 13 6 7 1022.3 1022.2 0.0
15/06:00am 13.0 11.5 9.1 77 2.0 SW 7 13 4 7 1022.2 1022.1 0.0
15/05:30am 14.2 12.4 9.4 73 2.4 E 9 20 5 11 1021.8 1021.7 0.0
15/05:00am 13.4 12.5 9.3 76 2.1 NW 4 9 2 5 1021.8 1021.7 0.0
15/04:30am 14.1 9.8 9.5 74 2.3 ESE 22 33 12 18 1021.4 1021.4 0.0
15/04:00am 14.0 9.4 9.6 75 2.3 ESE 24 35 13 19 1021.4 1021.4 0.0
15/03:30am 13.9 9.0 10.1 78 2.0 ESE 26 35 14 19 1021.7 1021.6 0.0
15/03:00am 13.9 8.3 10.3 79 1.9 ESE 30 41 16 22 1021.9 1021.8 0.0
15/02:30am 13.8 9.8 10.6 81 1.7 E 22 33 12 18 1022.4 1022.3 0.0
15/02:00am 13.7 11.5 10.7 82 1.6 SE 13 28 7 15 1022.7 1022.6 0.0
15/01:30am 13.4 11.5 10.4 82 1.6 ESE 11 20 6 11 1023.2 1023.1 0.0
15/01:00am 13.6 9.9 10.0 79 1.9 ESE 20 30 11 16 1023.4 1023.3 0.0
15/12:30am 14.0 9.4 9.8 76 2.2 ESE 24 28 13 15 1023.1 1023.0 0.0
15/12:00am 14.1 10.3 9.9 76 2.2 SE 20 26 11 14 1023.3 1023.2 0.0
 
Date/Time
CDT
Temp
°C
App
Temp
°C
Dew
Point
°C
Rel
Hum
%
Delta-T
°C
Wind Press
QNH
hPa
Press
MSL
hPa
Rain since
9am
mm
Dir  Spd
km/h
Gust
km/h
Spd
kts
Gust
kts
14/11:30pm 13.5 10.8 9.0 74 2.3 ESE 13 19 7 10 1023.4 1023.3 0.0
14/11:00pm 14.0 12.5 8.6 70 2.7 SSE 6 11 3 6 1023.6 1023.5 0.0
14/10:30pm 14.3 9.6 9.3 72 2.5 ESE 24 33 13 18 1023.1 1023.0 0.0
14/10:00pm 14.5 7.7 9.3 71 2.7 ESE 35 46 19 25 1022.9 1022.8 0.0
14/09:30pm 14.9 9.6 9.7 71 2.7 SE 28 39 15 21 1022.9 1022.8 0.0
14/09:00pm 15.4 11.7 10.0 70 2.8 SE 20 32 11 17 1023.0 1022.9 0.0
14/08:30pm 15.9 11.4 10.0 68 3.1 SE 24 33 13 18 1022.8 1022.7 0.0
14/08:00pm 16.7 13.0 10.3 66 3.4 SE 20 30 11 16 1022.5 1022.4 0.0
14/07:30pm 17.9 13.5 10.3 61 4.0 SE 24 33 13 18 1022.4 1022.3 0.0
14/07:00pm 19.9 16.8 8.9 49 5.8 SE 15 26 8 14 1022.1 1022.0 0.0
14/06:30pm 19.8 17.2 12.1 61 4.3 SSW 17 22 9 12 1021.9 1021.8 0.0
14/06:00pm 19.8 16.2 11.8 60 4.4 SSW 22 28 12 15 1021.9 1021.8 0.0
14/05:30pm 20.1 15.7 11.6 58 4.7 SW 26 32 14 17 1021.8 1021.7 0.0
14/05:00pm 21.2 17.4 11.2 53 5.5 SW 22 30 12 16 1021.8 1021.7 0.0
14/04:30pm 21.8 17.4 10.3 48 6.2 SW 24 30 13 16 1022.0 1021.9 0.0
14/04:00pm 21.9 18.3 10.4 48 6.3 SW 20 30 11 16 1022.1 1022.0 0.0
14/03:30pm 21.9 17.9 10.4 48 6.3 WSW 22 30 12 16 1022.3 1022.2 0.0
14/03:00pm 21.9 17.7 11.0 50 6.0 W 24 32 13 17 1022.6 1022.5 0.0
14/02:30pm 21.8 17.5 10.6 49 6.1 W 24 33 13 18 1023.1 1023.0 0.0
14/02:00pm 21.8 19.8 10.0 47 6.4 WSW 11 24 6 13 1023.4 1023.3 0.0
14/01:30pm 21.5 19.1 8.7 44 6.7 E 11 17 6 9 1023.8 1023.7 0.0
14/01:00pm 20.7 19.3 8.7 46 6.3 NE 6 13 3 7 1024.3 1024.2 0.0
14/12:30pm 20.2 18.7 9.2 49 5.8 SE 7 15 4 8 1024.7 1024.6 0.0
14/12:00pm 19.6 17.0 9.5 52 5.3 SSE 13 20 7 11 1025.0 1024.9 0.0
14/11:30am 18.5 15.9 9.3 55 4.8 SE 13 20 7 11 1025.3 1025.2 0.0
14/11:00am 17.4 14.2 8.5 56 4.6 ESE 15 22 8 12 1025.6 1025.5 0.0
14/10:30am 17.4 14.4 9.3 59 4.2 E 15 24 8 13 1025.8 1025.7 0.0
14/10:00am 16.7 13.4 9.4 62 3.8 E 17 24 9 13 1025.8 1025.7 0.0
14/09:30am 16.4 13.0 9.1 62 3.7 E 17 24 9 13 1025.8 1025.7 0.0
14/09:00am 15.8 12.9 9.7 67 3.2 ESE 15 20 8 11 1025.6 1025.5 0.0

Other Formats:

Comma delimited format used in spreadsheet applications
http://www.bom.gov.au/fwo/IDS60801/IDS60801.95677.axf

JavaScript Object Notation format (JSON) in row-major order
http://www.bom.gov.au/fwo/IDS60801/IDS60801.95677.json